sensor_id;sensor_type;location;lat;lon;timestamp;temperature;humidity
46029;DHT22;31763;48.180;7.904;2024-01-27T00:00:17;3.40;99.90
46029;DHT22;31763;48.180;7.904;2024-01-27T00:02:44;3.30;99.90
46029;DHT22;31763;48.180;7.904;2024-01-27T00:05:11;3.50;99.90
46029;DHT22;31763;48.180;7.904;2024-01-27T00:07:39;3.20;99.90
46029;DHT22;31763;48.180;7.904;2024-01-27T00:10:07;3.20;99.90
46029;DHT22;31763;48.180;7.904;2024-01-27T00:12:34;3.40;99.90
46029;DHT22;31763;48.180;7.904;2024-01-27T00:15:01;3.60;99.90
46029;DHT22;31763;48.180;7.904;2024-01-27T00:17:28;3.60;99.90
46029;DHT22;31763;48.180;7.904;2024-01-27T00:19:55;3.70;99.90
46029;DHT22;31763;48.180;7.904;2024-01-27T00:22:22;3.70;99.90
46029;DHT22;31763;48.180;7.904;2024-01-27T00:24:49;3.50;99.90
46029;DHT22;31763;48.180;7.904;2024-01-27T00:27:15;3.20;99.90
46029;DHT22;31763;48.180;7.904;2024-01-27T00:29:43;3.10;99.90
46029;DHT22;31763;48.180;7.904;2024-01-27T00:32:10;3.00;99.90
46029;DHT22;31763;48.180;7.904;2024-01-27T00:34:36;3.30;99.90
46029;DHT22;31763;48.180;7.904;2024-01-27T00:37:03;3.40;99.90
46029;DHT22;31763;48.180;7.904;2024-01-27T00:39:31;3.50;99.90
46029;DHT22;31763;48.180;7.904;2024-01-27T00:41:59;3.30;99.90
46029;DHT22;31763;48.180;7.904;2024-01-27T00:44:26;3.00;99.90
46029;DHT22;31763;48.180;7.904;2024-01-27T00:46:53;2.90;99.90
46029;DHT22;31763;48.180;7.904;2024-01-27T00:49:20;2.80;99.90
46029;DHT22;31763;48.180;7.904;2024-01-27T00:51:47;3.00;99.90
46029;DHT22;31763;48.180;7.904;2024-01-27T00:54:14;3.00;99.90
46029;DHT22;31763;48.180;7.904;2024-01-27T00:56:41;3.00;99.90
46029;DHT22;31763;48.180;7.904;2024-01-27T00:59:08;2.90;99.90
46029;DHT22;31763;48.180;7.904;2024-01-27T01:01:35;2.90;99.90
46029;DHT22;31763;48.180;7.904;2024-01-27T01:04:02;3.10;99.90
46029;DHT22;31763;48.180;7.904;2024-01-27T01:06:29;3.20;99.90
46029;DHT22;31763;48.180;7.904;2024-01-27T01:08:56;3.30;99.90
46029;DHT22;31763;48.180;7.904;2024-01-27T01:11:23;3.20;99.90
46029;DHT22;31763;48.180;7.904;2024-01-27T01:13:50;3.20;99.90
46029;DHT22;31763;48.180;7.904;2024-01-27T01:16:18;2.90;99.90
46029;DHT22;31763;48.180;7.904;2024-01-27T01:18:44;2.70;99.90
46029;DHT22;31763;48.180;7.904;2024-01-27T01:21:11;2.90;99.90
46029;DHT22;31763;48.180;7.904;2024-01-27T01:23:38;3.00;99.90
46029;DHT22;31763;48.180;7.904;2024-01-27T01:26:05;2.90;99.90
46029;DHT22;31763;48.180;7.904;2024-01-27T01:28:32;2.90;99.90
46029;DHT22;31763;48.180;7.904;2024-01-27T01:30:59;2.60;99.90
46029;DHT22;31763;48.180;7.904;2024-01-27T01:33:26;2.30;99.90
46029;DHT22;31763;48.180;7.904;2024-01-27T01:35:53;2.20;99.90
46029;DHT22;31763;48.180;7.904;2024-01-27T01:38:20;2.30;99.90
46029;DHT22;31763;48.180;7.904;2024-01-27T01:40:47;2.70;99.90
46029;DHT22;31763;48.180;7.904;2024-01-27T01:43:14;2.70;99.90
46029;DHT22;31763;48.180;7.904;2024-01-27T01:45:41;2.60;99.90
46029;DHT22;31763;48.180;7.904;2024-01-27T01:48:08;2.70;99.90
46029;DHT22;31763;48.180;7.904;2024-01-27T01:50:36;2.70;99.90
46029;DHT22;31763;48.180;7.904;2024-01-27T01:53:03;2.60;99.90
46029;DHT22;31763;48.180;7.904;2024-01-27T01:55:31;2.70;99.90
46029;DHT22;31763;48.180;7.904;2024-01-27T01:57:58;2.60;99.90
46029;DHT22;31763;48.180;7.904;2024-01-27T02:00:25;2.40;99.90
46029;DHT22;31763;48.180;7.904;2024-01-27T02:02:52;2.40;99.90
46029;DHT22;31763;48.180;7.904;2024-01-27T02:05:19;2.40;99.90
46029;DHT22;31763;48.180;7.904;2024-01-27T02:07:46;2.30;99.90
46029;DHT22;31763;48.180;7.904;2024-01-27T02:10:14;2.30;99.90
46029;DHT22;31763;48.180;7.904;2024-01-27T02:12:45;2.60;99.90
46029;DHT22;31763;48.180;7.904;2024-01-27T02:15:13;2.50;99.90
46029;DHT22;31763;48.180;7.904;2024-01-27T02:17:41;2.30;99.90
46029;DHT22;31763;48.180;7.904;2024-01-27T02:20:08;2.30;99.90
46029;DHT22;31763;48.180;7.904;2024-01-27T02:22:36;2.30;99.90
46029;DHT22;31763;48.180;7.904;2024-01-27T02:25:03;2.40;99.90
46029;DHT22;31763;48.180;7.904;2024-01-27T02:27:30;2.30;99.90
46029;DHT22;31763;48.180;7.904;2024-01-27T02:29:57;2.40;99.90
46029;DHT22;31763;48.180;7.904;2024-01-27T02:32:24;2.50;99.90
46029;DHT22;31763;48.180;7.904;2024-01-27T02:34:51;2.50;99.90
46029;DHT22;31763;48.180;7.904;2024-01-27T02:37:19;2.20;99.90
46029;DHT22;31763;48.180;7.904;2024-01-27T02:39:46;2.00;99.90
46029;DHT22;31763;48.180;7.904;2024-01-27T02:42:13;1.90;99.90
46029;DHT22;31763;48.180;7.904;2024-01-27T02:44:40;2.00;99.90
46029;DHT22;31763;48.180;7.904;2024-01-27T02:47:06;2.30;99.90
46029;DHT22;31763;48.180;7.904;2024-01-27T02:49:34;2.40;99.90
46029;DHT22;31763;48.180;7.904;2024-01-27T02:52:01;2.50;99.90
46029;DHT22;31763;48.180;7.904;2024-01-27T02:54:28;2.60;99.90
46029;DHT22;31763;48.180;7.904;2024-01-27T02:56:55;2.30;99.90
46029;DHT22;31763;48.180;7.904;2024-01-27T02:59:22;2.20;99.90
46029;DHT22;31763;48.180;7.904;2024-01-27T03:01:49;1.80;99.90
46029;DHT22;31763;48.180;7.904;2024-01-27T03:04:16;1.90;99.90
46029;DHT22;31763;48.180;7.904;2024-01-27T03:06:43;1.70;99.90
46029;DHT22;31763;48.180;7.904;2024-01-27T03:09:11;1.90;99.90
46029;DHT22;31763;48.180;7.904;2024-01-27T03:11:38;2.00;99.90
46029;DHT22;31763;48.180;7.904;2024-01-27T03:14:05;1.70;99.90
46029;DHT22;31763;48.180;7.904;2024-01-27T03:16:32;1.60;99.90
46029;DHT22;31763;48.180;7.904;2024-01-27T03:18:59;1.60;99.90
46029;DHT22;31763;48.180;7.904;2024-01-27T03:21:26;1.60;99.90
46029;DHT22;31763;48.180;7.904;2024-01-27T03:23:53;1.80;99.90
46029;DHT22;31763;48.180;7.904;2024-01-27T03:26:20;2.00;99.90
46029;DHT22;31763;48.180;7.904;2024-01-27T03:28:47;2.10;99.90
46029;DHT22;31763;48.180;7.904;2024-01-27T03:31:14;2.20;99.90
46029;DHT22;31763;48.180;7.904;2024-01-27T03:33:41;2.30;99.90
46029;DHT22;31763;48.180;7.904;2024-01-27T03:36:12;2.20;99.90
46029;DHT22;31763;48.180;7.904;2024-01-27T03:38:40;2.20;99.90
46029;DHT22;31763;48.180;7.904;2024-01-27T03:41:07;2.30;99.90
46029;DHT22;31763;48.180;7.904;2024-01-27T03:43:34;2.20;99.90
46029;DHT22;31763;48.180;7.904;2024-01-27T03:46:01;2.20;99.90
46029;DHT22;31763;48.180;7.904;2024-01-27T03:48:29;2.20;99.90
46029;DHT22;31763;48.180;7.904;2024-01-27T03:50:57;2.20;99.90
46029;DHT22;31763;48.180;7.904;2024-01-27T03:53:24;2.10;99.90
46029;DHT22;31763;48.180;7.904;2024-01-27T03:55:50;2.10;99.90
46029;DHT22;31763;48.180;7.904;2024-01-27T03:58:18;2.00;99.90
46029;DHT22;31763;48.180;7.904;2024-01-27T04:00:45;2.00;99.90
46029;DHT22;31763;48.180;7.904;2024-01-27T04:03:12;2.00;99.90
46029;DHT22;31763;48.180;7.904;2024-01-27T04:05:39;2.00;99.90
46029;DHT22;31763;48.180;7.904;2024-01-27T04:08:06;2.10;99.90
46029;DHT22;31763;48.180;7.904;2024-01-27T04:10:33;2.00;99.90
46029;DHT22;31763;48.180;7.904;2024-01-27T04:13:00;1.90;99.90
46029;DHT22;31763;48.180;7.904;2024-01-27T04:15:27;2.00;99.90
46029;DHT22;31763;48.180;7.904;2024-01-27T04:17:55;2.00;99.90
46029;DHT22;31763;48.180;7.904;2024-01-27T04:20:22;2.00;99.90
46029;DHT22;31763;48.180;7.904;2024-01-27T04:22:49;2.00;99.90
46029;DHT22;31763;48.180;7.904;2024-01-27T04:25:16;1.80;99.90
46029;DHT22;31763;48.180;7.904;2024-01-27T04:27:43;1.80;99.90
46029;DHT22;31763;48.180;7.904;2024-01-27T04:30:11;1.70;99.90
46029;DHT22;31763;48.180;7.904;2024-01-27T04:32:39;1.70;99.90
46029;DHT22;31763;48.180;7.904;2024-01-27T04:35:10;1.70;99.90
46029;DHT22;31763;48.180;7.904;2024-01-27T04:37:38;1.80;99.90
46029;DHT22;31763;48.180;7.904;2024-01-27T04:40:05;1.80;99.90
46029;DHT22;31763;48.180;7.904;2024-01-27T04:42:38;1.70;99.90
46029;DHT22;31763;48.180;7.904;2024-01-27T04:45:06;1.70;99.90
46029;DHT22;31763;48.180;7.904;2024-01-27T04:47:33;1.80;99.90
46029;DHT22;31763;48.180;7.904;2024-01-27T04:50:00;1.90;99.90
46029;DHT22;31763;48.180;7.904;2024-01-27T04:52:27;1.90;99.90
46029;DHT22;31763;48.180;7.904;2024-01-27T04:54:54;1.80;99.90
46029;DHT22;31763;48.180;7.904;2024-01-27T04:57:21;1.60;99.90
46029;DHT22;31763;48.180;7.904;2024-01-27T04:59:48;1.60;99.90
46029;DHT22;31763;48.180;7.904;2024-01-27T05:02:15;1.70;99.90
46029;DHT22;31763;48.180;7.904;2024-01-27T05:04:42;1.60;99.90
46029;DHT22;31763;48.180;7.904;2024-01-27T05:07:09;1.60;99.90
46029;DHT22;31763;48.180;7.904;2024-01-27T05:09:36;1.60;99.90
46029;DHT22;31763;48.180;7.904;2024-01-27T05:12:03;1.60;99.90
46029;DHT22;31763;48.180;7.904;2024-01-27T05:14:30;1.60;99.90
46029;DHT22;31763;48.180;7.904;2024-01-27T05:16:57;1.60;99.90
46029;DHT22;31763;48.180;7.904;2024-01-27T05:19:24;1.70;99.90
46029;DHT22;31763;48.180;7.904;2024-01-27T05:21:51;1.70;99.90
46029;DHT22;31763;48.180;7.904;2024-01-27T05:24:18;1.60;99.90
46029;DHT22;31763;48.180;7.904;2024-01-27T05:26:46;1.30;99.90
46029;DHT22;31763;48.180;7.904;2024-01-27T05:29:12;1.20;99.90
46029;DHT22;31763;48.180;7.904;2024-01-27T05:31:39;1.50;99.90
46029;DHT22;31763;48.180;7.904;2024-01-27T05:34:10;1.20;99.90
46029;DHT22;31763;48.180;7.904;2024-01-27T05:36:38;1.10;99.90
46029;DHT22;31763;48.180;7.904;2024-01-27T05:39:04;1.00;99.90
46029;DHT22;31763;48.180;7.904;2024-01-27T05:41:32;1.00;99.90
46029;DHT22;31763;48.180;7.904;2024-01-27T05:43:59;0.90;99.90
46029;DHT22;31763;48.180;7.904;2024-01-27T05:46:26;0.90;99.90
46029;DHT22;31763;48.180;7.904;2024-01-27T05:48:53;0.90;99.90
46029;DHT22;31763;48.180;7.904;2024-01-27T05:51:22;0.70;99.90
46029;DHT22;31763;48.180;7.904;2024-01-27T05:53:50;0.90;99.90
46029;DHT22;31763;48.180;7.904;2024-01-27T05:56:17;1.00;99.90
46029;DHT22;31763;48.180;7.904;2024-01-27T05:58:49;1.00;99.90
46029;DHT22;31763;48.180;7.904;2024-01-27T06:01:19;1.00;99.90
46029;DHT22;31763;48.180;7.904;2024-01-27T06:03:47;0.90;99.90
46029;DHT22;31763;48.180;7.904;2024-01-27T06:06:14;0.70;99.90
46029;DHT22;31763;48.180;7.904;2024-01-27T06:08:41;0.80;99.90
46029;DHT22;31763;48.180;7.904;2024-01-27T06:11:08;0.90;99.90
46029;DHT22;31763;48.180;7.904;2024-01-27T06:13:36;0.80;99.90
46029;DHT22;31763;48.180;7.904;2024-01-27T06:16:08;1.10;99.90
46029;DHT22;31763;48.180;7.904;2024-01-27T06:18:38;1.40;99.90
46029;DHT22;31763;48.180;7.904;2024-01-27T06:21:05;1.50;99.90
46029;DHT22;31763;48.180;7.904;2024-01-27T06:23:33;1.50;99.90
46029;DHT22;31763;48.180;7.904;2024-01-27T06:26:07;1.40;99.90
46029;DHT22;31763;48.180;7.904;2024-01-27T06:28:35;1.40;99.90
46029;DHT22;31763;48.180;7.904;2024-01-27T06:31:03;1.30;99.90
46029;DHT22;31763;48.180;7.904;2024-01-27T06:33:31;0.30;99.90
46029;DHT22;31763;48.180;7.904;2024-01-27T06:35:58;0.70;99.90
46029;DHT22;31763;48.180;7.904;2024-01-27T06:38:26;1.00;99.90
46029;DHT22;31763;48.180;7.904;2024-01-27T06:40:54;1.10;99.90
46029;DHT22;31763;48.180;7.904;2024-01-27T06:43:21;1.10;99.90
46029;DHT22;31763;48.180;7.904;2024-01-27T06:45:47;1.20;99.90
46029;DHT22;31763;48.180;7.904;2024-01-27T06:48:14;1.20;99.90
46029;DHT22;31763;48.180;7.904;2024-01-27T06:50:41;1.40;99.90
46029;DHT22;31763;48.180;7.904;2024-01-27T06:53:09;1.60;99.90
46029;DHT22;31763;48.180;7.904;2024-01-27T06:55:37;1.50;99.90
46029;DHT22;31763;48.180;7.904;2024-01-27T06:58:09;1.50;99.90
46029;DHT22;31763;48.180;7.904;2024-01-27T07:00:36;1.40;99.90
46029;DHT22;31763;48.180;7.904;2024-01-27T07:03:03;1.40;99.90
46029;DHT22;31763;48.180;7.904;2024-01-27T07:05:30;1.50;99.90
46029;DHT22;31763;48.180;7.904;2024-01-27T07:07:59;1.40;99.90
46029;DHT22;31763;48.180;7.904;2024-01-27T07:10:26;1.40;99.90
46029;DHT22;31763;48.180;7.904;2024-01-27T07:12:53;1.30;99.90
46029;DHT22;31763;48.180;7.904;2024-01-27T07:15:20;1.20;99.90
46029;DHT22;31763;48.180;7.904;2024-01-27T07:17:48;1.20;99.90
46029;DHT22;31763;48.180;7.904;2024-01-27T07:20:15;1.30;99.90
46029;DHT22;31763;48.180;7.904;2024-01-27T07:22:42;1.40;99.90
46029;DHT22;31763;48.180;7.904;2024-01-27T07:25:09;1.50;99.90
46029;DHT22;31763;48.180;7.904;2024-01-27T07:27:36;1.00;99.90
46029;DHT22;31763;48.180;7.904;2024-01-27T07:30:04;0.90;99.90
46029;DHT22;31763;48.180;7.904;2024-01-27T07:32:32;0.80;99.90
46029;DHT22;31763;48.180;7.904;2024-01-27T07:34:59;0.80;99.90
46029;DHT22;31763;48.180;7.904;2024-01-27T07:37:26;0.60;99.90
46029;DHT22;31763;48.180;7.904;2024-01-27T07:39:53;0.90;99.90
46029;DHT22;31763;48.180;7.904;2024-01-27T07:42:20;1.20;99.90
46029;DHT22;31763;48.180;7.904;2024-01-27T07:44:47;1.30;99.90
46029;DHT22;31763;48.180;7.904;2024-01-27T07:47:16;1.30;99.90
46029;DHT22;31763;48.180;7.904;2024-01-27T07:49:43;1.30;99.90
46029;DHT22;31763;48.180;7.904;2024-01-27T07:52:11;1.00;99.90
46029;DHT22;31763;48.180;7.904;2024-01-27T07:54:38;0.80;99.90
46029;DHT22;31763;48.180;7.904;2024-01-27T07:57:06;1.10;99.90
46029;DHT22;31763;48.180;7.904;2024-01-27T07:59:34;1.20;99.90
46029;DHT22;31763;48.180;7.904;2024-01-27T08:02:01;1.20;99.90
46029;DHT22;31763;48.180;7.904;2024-01-27T08:04:28;1.20;99.90
46029;DHT22;31763;48.180;7.904;2024-01-27T08:06:55;1.30;99.90
46029;DHT22;31763;48.180;7.904;2024-01-27T08:09:22;1.40;99.90
46029;DHT22;31763;48.180;7.904;2024-01-27T08:11:50;1.50;99.90
46029;DHT22;31763;48.180;7.904;2024-01-27T08:14:20;1.50;99.90
46029;DHT22;31763;48.180;7.904;2024-01-27T08:16:47;1.10;99.90
46029;DHT22;31763;48.180;7.904;2024-01-27T08:19:15;1.10;99.90
46029;DHT22;31763;48.180;7.904;2024-01-27T08:21:48;1.00;99.90
46029;DHT22;31763;48.180;7.904;2024-01-27T08:24:14;1.20;99.90
46029;DHT22;31763;48.180;7.904;2024-01-27T08:26:42;1.30;99.90
46029;DHT22;31763;48.180;7.904;2024-01-27T08:29:09;1.10;99.90
46029;DHT22;31763;48.180;7.904;2024-01-27T08:31:36;1.00;99.90
46029;DHT22;31763;48.180;7.904;2024-01-27T08:34:06;1.20;99.90
46029;DHT22;31763;48.180;7.904;2024-01-27T08:36:34;1.80;99.90
46029;DHT22;31763;48.180;7.904;2024-01-27T08:39:01;2.20;99.90
46029;DHT22;31763;48.180;7.904;2024-01-27T08:41:28;2.30;99.90
46029;DHT22;31763;48.180;7.904;2024-01-27T08:43:55;2.40;99.90
46029;DHT22;31763;48.180;7.904;2024-01-27T08:46:22;2.50;99.90
46029;DHT22;31763;48.180;7.904;2024-01-27T08:48:49;2.50;99.90
46029;DHT22;31763;48.180;7.904;2024-01-27T08:51:16;2.50;99.90
46029;DHT22;31763;48.180;7.904;2024-01-27T08:53:44;2.20;99.90
46029;DHT22;31763;48.180;7.904;2024-01-27T08:56:18;2.20;99.90
46029;DHT22;31763;48.180;7.904;2024-01-27T08:58:45;2.10;99.90
46029;DHT22;31763;48.180;7.904;2024-01-27T09:01:16;2.10;99.90
46029;DHT22;31763;48.180;7.904;2024-01-27T09:03:43;2.10;99.90
46029;DHT22;31763;48.180;7.904;2024-01-27T09:06:10;2.20;99.90
46029;DHT22;31763;48.180;7.904;2024-01-27T09:08:37;2.30;99.90
46029;DHT22;31763;48.180;7.904;2024-01-27T09:11:04;2.70;99.90
46029;DHT22;31763;48.180;7.904;2024-01-27T09:13:31;3.20;99.90
46029;DHT22;31763;48.180;7.904;2024-01-27T09:15:59;3.40;99.90
46029;DHT22;31763;48.180;7.904;2024-01-27T09:18:26;3.50;99.90
46029;DHT22;31763;48.180;7.904;2024-01-27T09:20:55;3.50;99.90
46029;DHT22;31763;48.180;7.904;2024-01-27T09:23:22;3.40;99.90
46029;DHT22;31763;48.180;7.904;2024-01-27T09:25:49;3.40;99.90
46029;DHT22;31763;48.180;7.904;2024-01-27T09:28:16;3.70;99.90
46029;DHT22;31763;48.180;7.904;2024-01-27T09:30:43;3.80;99.90
46029;DHT22;31763;48.180;7.904;2024-01-27T09:33:10;3.70;99.90
46029;DHT22;31763;48.180;7.904;2024-01-27T09:35:38;3.70;99.90
46029;DHT22;31763;48.180;7.904;2024-01-27T09:38:05;3.40;99.90
46029;DHT22;31763;48.180;7.904;2024-01-27T09:40:35;3.30;99.90
46029;DHT22;31763;48.180;7.904;2024-01-27T09:43:02;3.40;99.90
46029;DHT22;31763;48.180;7.904;2024-01-27T09:45:29;3.30;99.90
46029;DHT22;31763;48.180;7.904;2024-01-27T09:47:57;3.60;99.90
46029;DHT22;31763;48.180;7.904;2024-01-27T09:50:27;3.30;99.90
46029;DHT22;31763;48.180;7.904;2024-01-27T09:52:54;3.20;99.90
46029;DHT22;31763;48.180;7.904;2024-01-27T09:55:21;3.30;99.90
46029;DHT22;31763;48.180;7.904;2024-01-27T09:57:48;3.20;99.90
46029;DHT22;31763;48.180;7.904;2024-01-27T10:00:15;3.20;99.90
46029;DHT22;31763;48.180;7.904;2024-01-27T10:02:46;3.20;99.90
46029;DHT22;31763;48.180;7.904;2024-01-27T10:05:15;3.20;99.90
46029;DHT22;31763;48.180;7.904;2024-01-27T10:07:43;3.20;99.90
46029;DHT22;31763;48.180;7.904;2024-01-27T10:10:10;3.20;99.90
46029;DHT22;31763;48.180;7.904;2024-01-27T10:12:41;3.20;99.90
46029;DHT22;31763;48.180;7.904;2024-01-27T10:15:19;3.20;99.90
46029;DHT22;31763;48.180;7.904;2024-01-27T10:17:46;3.50;99.90
46029;DHT22;31763;48.180;7.904;2024-01-27T10:20:13;3.40;99.90
46029;DHT22;31763;48.180;7.904;2024-01-27T10:22:42;3.50;99.90
46029;DHT22;31763;48.180;7.904;2024-01-27T10:25:12;3.60;99.90
46029;DHT22;31763;48.180;7.904;2024-01-27T10:27:39;3.70;99.90
46029;DHT22;31763;48.180;7.904;2024-01-27T10:30:15;3.90;99.90
46029;DHT22;31763;48.180;7.904;2024-01-27T10:32:44;3.90;99.90
46029;DHT22;31763;48.180;7.904;2024-01-27T10:35:22;4.00;99.90
46029;DHT22;31763;48.180;7.904;2024-01-27T10:37:53;4.10;99.90
46029;DHT22;31763;48.180;7.904;2024-01-27T10:40:25;4.20;99.90
46029;DHT22;31763;48.180;7.904;2024-01-27T10:43:07;4.30;99.90
46029;DHT22;31763;48.180;7.904;2024-01-27T10:48:06;4.50;99.90
46029;DHT22;31763;48.180;7.904;2024-01-27T10:50:39;4.60;99.90
46029;DHT22;31763;48.180;7.904;2024-01-27T10:53:23;4.70;99.90
46029;DHT22;31763;48.180;7.904;2024-01-27T10:55:58;4.90;99.90
46029;DHT22;31763;48.180;7.904;2024-01-27T10:58:26;5.00;99.90
46029;DHT22;31763;48.180;7.904;2024-01-27T11:00:56;5.30;99.90
46029;DHT22;31763;48.180;7.904;2024-01-27T11:03:24;5.50;99.90
46029;DHT22;31763;48.180;7.904;2024-01-27T11:05:52;5.90;99.90
46029;DHT22;31763;48.180;7.904;2024-01-27T11:08:24;6.20;99.90
46029;DHT22;31763;48.180;7.904;2024-01-27T11:10:55;6.40;99.90
46029;DHT22;31763;48.180;7.904;2024-01-27T11:13:22;6.90;99.90
46029;DHT22;31763;48.180;7.904;2024-01-27T11:15:54;7.20;99.90
46029;DHT22;31763;48.180;7.904;2024-01-27T11:18:21;7.50;99.90
46029;DHT22;31763;48.180;7.904;2024-01-27T11:20:52;7.80;99.90
46029;DHT22;31763;48.180;7.904;2024-01-27T11:23:20;7.90;99.90
46029;DHT22;31763;48.180;7.904;2024-01-27T11:25:46;7.90;99.90
46029;DHT22;31763;48.180;7.904;2024-01-27T11:28:15;8.10;99.90
46029;DHT22;31763;48.180;7.904;2024-01-27T11:30:49;8.50;99.90
46029;DHT22;31763;48.180;7.904;2024-01-27T11:33:17;8.40;99.90
46029;DHT22;31763;48.180;7.904;2024-01-27T11:35:44;8.90;99.90
46029;DHT22;31763;48.180;7.904;2024-01-27T11:38:11;9.10;99.90
46029;DHT22;31763;48.180;7.904;2024-01-27T11:40:48;9.10;99.90
46029;DHT22;31763;48.180;7.904;2024-01-27T11:43:16;8.90;99.90
46029;DHT22;31763;48.180;7.904;2024-01-27T11:45:43;8.90;99.90
46029;DHT22;31763;48.180;7.904;2024-01-27T11:48:10;8.60;99.90
46029;DHT22;31763;48.180;7.904;2024-01-27T11:50:38;8.50;99.90
46029;DHT22;31763;48.180;7.904;2024-01-27T11:53:05;8.20;99.90
46029;DHT22;31763;48.180;7.904;2024-01-27T11:55:37;8.20;99.90
46029;DHT22;31763;48.180;7.904;2024-01-27T11:58:06;7.90;99.90
46029;DHT22;31763;48.180;7.904;2024-01-27T12:00:33;7.90;99.90
46029;DHT22;31763;48.180;7.904;2024-01-27T12:03:00;7.70;99.90
46029;DHT22;31763;48.180;7.904;2024-01-27T12:05:27;7.50;99.90
46029;DHT22;31763;48.180;7.904;2024-01-27T12:07:54;7.30;99.90
46029;DHT22;31763;48.180;7.904;2024-01-27T12:10:21;6.90;99.90
46029;DHT22;31763;48.180;7.904;2024-01-27T12:12:48;6.90;99.90
46029;DHT22;31763;48.180;7.904;2024-01-27T12:15:15;6.80;99.90
46029;DHT22;31763;48.180;7.904;2024-01-27T12:17:42;6.70;99.90
46029;DHT22;31763;48.180;7.904;2024-01-27T12:20:14;6.60;99.90
46029;DHT22;31763;48.180;7.904;2024-01-27T12:22:43;6.60;99.90
46029;DHT22;31763;48.180;7.904;2024-01-27T12:25:13;6.70;99.90
46029;DHT22;31763;48.180;7.904;2024-01-27T12:27:41;6.70;99.90
46029;DHT22;31763;48.180;7.904;2024-01-27T12:30:09;6.60;99.90
46029;DHT22;31763;48.180;7.904;2024-01-27T12:32:37;6.70;99.90
46029;DHT22;31763;48.180;7.904;2024-01-27T12:35:05;7.00;99.90
46029;DHT22;31763;48.180;7.904;2024-01-27T12:37:32;7.00;99.90
46029;DHT22;31763;48.180;7.904;2024-01-27T12:40:00;7.00;99.90
46029;DHT22;31763;48.180;7.904;2024-01-27T12:42:27;6.90;99.90
46029;DHT22;31763;48.180;7.904;2024-01-27T12:44:54;6.70;99.90
46029;DHT22;31763;48.180;7.904;2024-01-27T12:47:21;6.70;99.90
46029;DHT22;31763;48.180;7.904;2024-01-27T12:49:48;6.80;99.90
46029;DHT22;31763;48.180;7.904;2024-01-27T12:52:16;6.90;99.90
46029;DHT22;31763;48.180;7.904;2024-01-27T12:54:43;6.90;99.90
46029;DHT22;31763;48.180;7.904;2024-01-27T12:57:11;6.90;99.90
46029;DHT22;31763;48.180;7.904;2024-01-27T12:59:38;6.90;99.90
46029;DHT22;31763;48.180;7.904;2024-01-27T13:02:05;7.00;99.90
46029;DHT22;31763;48.180;7.904;2024-01-27T13:04:32;7.00;99.90
46029;DHT22;31763;48.180;7.904;2024-01-27T13:06:58;7.00;99.90
46029;DHT22;31763;48.180;7.904;2024-01-27T13:09:26;7.10;99.90
46029;DHT22;31763;48.180;7.904;2024-01-27T13:11:53;7.00;99.90
46029;DHT22;31763;48.180;7.904;2024-01-27T13:14:20;7.20;99.90
46029;DHT22;31763;48.180;7.904;2024-01-27T13:16:47;7.40;99.90
46029;DHT22;31763;48.180;7.904;2024-01-27T13:19:14;7.30;99.90
46029;DHT22;31763;48.180;7.904;2024-01-27T13:21:41;7.20;99.90
46029;DHT22;31763;48.180;7.904;2024-01-27T13:24:08;7.10;99.90
46029;DHT22;31763;48.180;7.904;2024-01-27T13:26:35;7.20;99.90
46029;DHT22;31763;48.180;7.904;2024-01-27T13:29:06;7.30;99.90
46029;DHT22;31763;48.180;7.904;2024-01-27T13:31:33;7.30;99.90
46029;DHT22;31763;48.180;7.904;2024-01-27T13:34:00;7.40;99.90
46029;DHT22;31763;48.180;7.904;2024-01-27T13:36:32;7.40;99.90
46029;DHT22;31763;48.180;7.904;2024-01-27T13:39:00;7.40;99.90
46029;DHT22;31763;48.180;7.904;2024-01-27T13:41:27;7.40;99.90
46029;DHT22;31763;48.180;7.904;2024-01-27T13:43:54;7.40;99.90
46029;DHT22;31763;48.180;7.904;2024-01-27T13:46:21;7.60;99.90
46029;DHT22;31763;48.180;7.904;2024-01-27T13:48:51;7.60;99.90
46029;DHT22;31763;48.180;7.904;2024-01-27T13:51:18;7.50;99.90
46029;DHT22;31763;48.180;7.904;2024-01-27T13:53:45;7.50;99.90
46029;DHT22;31763;48.180;7.904;2024-01-27T13:56:14;7.40;99.90
46029;DHT22;31763;48.180;7.904;2024-01-27T13:58:42;7.60;99.90
46029;DHT22;31763;48.180;7.904;2024-01-27T14:01:09;7.50;99.90
46029;DHT22;31763;48.180;7.904;2024-01-27T14:03:36;7.70;99.90
46029;DHT22;31763;48.180;7.904;2024-01-27T14:06:05;7.60;99.90
46029;DHT22;31763;48.180;7.904;2024-01-27T14:08:33;7.60;99.90
46029;DHT22;31763;48.180;7.904;2024-01-27T14:10:59;7.70;99.90
46029;DHT22;31763;48.180;7.904;2024-01-27T14:13:26;7.70;99.90
46029;DHT22;31763;48.180;7.904;2024-01-27T14:15:53;7.70;99.90
46029;DHT22;31763;48.180;7.904;2024-01-27T14:18:20;7.70;99.90
46029;DHT22;31763;48.180;7.904;2024-01-27T14:20:49;7.60;99.90
46029;DHT22;31763;48.180;7.904;2024-01-27T14:23:17;7.60;99.90
46029;DHT22;31763;48.180;7.904;2024-01-27T14:25:44;7.80;99.90
46029;DHT22;31763;48.180;7.904;2024-01-27T14:28:14;7.40;99.90
46029;DHT22;31763;48.180;7.904;2024-01-27T14:30:41;7.30;99.90
46029;DHT22;31763;48.180;7.904;2024-01-27T14:33:13;7.40;99.90
46029;DHT22;31763;48.180;7.904;2024-01-27T14:35:42;7.40;99.90
46029;DHT22;31763;48.180;7.904;2024-01-27T14:38:09;7.60;99.90
46029;DHT22;31763;48.180;7.904;2024-01-27T14:40:36;7.50;99.90
46029;DHT22;31763;48.180;7.904;2024-01-27T14:43:04;7.70;99.90
46029;DHT22;31763;48.180;7.904;2024-01-27T14:45:35;7.80;99.90
46029;DHT22;31763;48.180;7.904;2024-01-27T14:48:03;8.20;99.90
46029;DHT22;31763;48.180;7.904;2024-01-27T14:50:31;8.30;99.90
46029;DHT22;31763;48.180;7.904;2024-01-27T14:52:59;8.10;99.90
46029;DHT22;31763;48.180;7.904;2024-01-27T14:55:28;7.70;99.90
46029;DHT22;31763;48.180;7.904;2024-01-27T14:57:57;7.90;99.90
46029;DHT22;31763;48.180;7.904;2024-01-27T15:00:24;8.10;99.90
46029;DHT22;31763;48.180;7.904;2024-01-27T15:02:51;8.20;99.90
46029;DHT22;31763;48.180;7.904;2024-01-27T15:05:18;7.90;99.90
46029;DHT22;31763;48.180;7.904;2024-01-27T15:07:46;7.70;99.90
46029;DHT22;31763;48.180;7.904;2024-01-27T15:10:13;7.50;99.90
46029;DHT22;31763;48.180;7.904;2024-01-27T15:12:41;7.50;99.90
46029;DHT22;31763;48.180;7.904;2024-01-27T15:15:08;7.10;99.90
46029;DHT22;31763;48.180;7.904;2024-01-27T15:17:35;6.80;99.90
46029;DHT22;31763;48.180;7.904;2024-01-27T15:20:02;6.80;99.90
46029;DHT22;31763;48.180;7.904;2024-01-27T15:22:30;6.80;99.90
46029;DHT22;31763;48.180;7.904;2024-01-27T15:24:56;6.90;99.90
46029;DHT22;31763;48.180;7.904;2024-01-27T15:27:24;7.10;99.90
46029;DHT22;31763;48.180;7.904;2024-01-27T15:29:51;7.10;99.90
46029;DHT22;31763;48.180;7.904;2024-01-27T15:32:22;7.10;99.90
46029;DHT22;31763;48.180;7.904;2024-01-27T15:34:50;7.10;99.90
46029;DHT22;31763;48.180;7.904;2024-01-27T15:37:18;6.90;99.90
46029;DHT22;31763;48.180;7.904;2024-01-27T15:39:45;6.60;99.90
46029;DHT22;31763;48.180;7.904;2024-01-27T15:42:13;6.50;99.90
46029;DHT22;31763;48.180;7.904;2024-01-27T15:44:40;6.50;99.90
46029;DHT22;31763;48.180;7.904;2024-01-27T15:47:07;6.50;99.90
46029;DHT22;31763;48.180;7.904;2024-01-27T15:49:34;6.40;99.90